sensor_id;sensor_type;location;lat;lon;timestamp;temperature;humidity
3406;DHT22;10008;48.682;9.016;2023-10-09T00:00:26;12.30;99.90
3406;DHT22;10008;48.682;9.016;2023-10-09T00:03:19;12.30;99.90
3406;DHT22;10008;48.682;9.016;2023-10-09T00:05:48;12.20;99.90
3406;DHT22;10008;48.682;9.016;2023-10-09T00:08:16;12.10;99.90
3406;DHT22;10008;48.682;9.016;2023-10-09T00:10:46;12.20;99.90
3406;DHT22;10008;48.682;9.016;2023-10-09T00:13:24;12.00;99.90
3406;DHT22;10008;48.682;9.016;2023-10-09T00:16:04;11.90;99.90
3406;DHT22;10008;48.682;9.016;2023-10-09T00:18:40;11.90;99.90
3406;DHT22;10008;48.682;9.016;2023-10-09T00:21:18;11.80;99.90
3406;DHT22;10008;48.682;9.016;2023-10-09T00:23:48;11.90;99.90
3406;DHT22;10008;48.682;9.016;2023-10-09T00:26:21;11.80;99.90
3406;DHT22;10008;48.682;9.016;2023-10-09T00:28:50;11.80;99.90
3406;DHT22;10008;48.682;9.016;2023-10-09T00:31:17;11.90;99.90
3406;DHT22;10008;48.682;9.016;2023-10-09T00:33:56;11.90;99.90
3406;DHT22;10008;48.682;9.016;2023-10-09T00:36:27;11.80;99.90
3406;DHT22;10008;48.682;9.016;2023-10-09T00:38:55;12.00;99.90
3406;DHT22;10008;48.682;9.016;2023-10-09T00:41:24;11.90;99.90
3406;DHT22;10008;48.682;9.016;2023-10-09T00:43:51;11.90;99.90
3406;DHT22;10008;48.682;9.016;2023-10-09T00:46:20;11.90;99.90
3406;DHT22;10008;48.682;9.016;2023-10-09T00:48:52;12.10;99.90
3406;DHT22;10008;48.682;9.016;2023-10-09T00:51:19;12.10;99.90
3406;DHT22;10008;48.682;9.016;2023-10-09T00:53:55;12.20;99.90
3406;DHT22;10008;48.682;9.016;2023-10-09T00:56:23;12.10;99.90
3406;DHT22;10008;48.682;9.016;2023-10-09T00:58:53;12.10;99.90
3406;DHT22;10008;48.682;9.016;2023-10-09T01:01:39;12.20;99.90
3406;DHT22;10008;48.682;9.016;2023-10-09T01:04:07;12.00;99.90
3406;DHT22;10008;48.682;9.016;2023-10-09T01:06:41;11.90;99.90
3406;DHT22;10008;48.682;9.016;2023-10-09T01:09:14;11.90;99.90
3406;DHT22;10008;48.682;9.016;2023-10-09T01:11:42;11.90;99.90
3406;DHT22;10008;48.682;9.016;2023-10-09T01:14:15;11.90;99.90
3406;DHT22;10008;48.682;9.016;2023-10-09T01:16:41;11.90;99.90
3406;DHT22;10008;48.682;9.016;2023-10-09T01:19:08;11.90;99.90
3406;DHT22;10008;48.682;9.016;2023-10-09T01:21:52;12.00;99.90
3406;DHT22;10008;48.682;9.016;2023-10-09T01:24:18;11.90;99.90
3406;DHT22;10008;48.682;9.016;2023-10-09T01:26:48;11.90;99.90
3406;DHT22;10008;48.682;9.016;2023-10-09T01:29:22;12.00;99.90
3406;DHT22;10008;48.682;9.016;2023-10-09T01:31:54;11.90;99.90
3406;DHT22;10008;48.682;9.016;2023-10-09T01:36:53;12.10;99.90
3406;DHT22;10008;48.682;9.016;2023-10-09T01:39:30;12.00;99.90
3406;DHT22;10008;48.682;9.016;2023-10-09T01:41:57;12.10;99.90
3406;DHT22;10008;48.682;9.016;2023-10-09T01:44:27;12.10;99.90
3406;DHT22;10008;48.682;9.016;2023-10-09T01:47:04;12.20;99.90
3406;DHT22;10008;48.682;9.016;2023-10-09T01:49:45;12.20;99.90
3406;DHT22;10008;48.682;9.016;2023-10-09T01:52:15;12.20;99.90
3406;DHT22;10008;48.682;9.016;2023-10-09T01:54:50;12.40;99.90
3406;DHT22;10008;48.682;9.016;2023-10-09T01:57:18;12.30;99.90
3406;DHT22;10008;48.682;9.016;2023-10-09T01:59:51;12.30;99.90
3406;DHT22;10008;48.682;9.016;2023-10-09T02:02:20;12.30;99.90
3406;DHT22;10008;48.682;9.016;2023-10-09T02:04:53;12.40;99.90
3406;DHT22;10008;48.682;9.016;2023-10-09T02:07:20;12.40;99.90
3406;DHT22;10008;48.682;9.016;2023-10-09T02:09:55;12.40;99.90
3406;DHT22;10008;48.682;9.016;2023-10-09T02:12:21;12.40;99.90
3406;DHT22;10008;48.682;9.016;2023-10-09T02:14:50;12.40;99.90
3406;DHT22;10008;48.682;9.016;2023-10-09T02:17:19;12.40;99.90
3406;DHT22;10008;48.682;9.016;2023-10-09T02:19:54;12.40;99.90
3406;DHT22;10008;48.682;9.016;2023-10-09T02:22:20;12.40;99.90
3406;DHT22;10008;48.682;9.016;2023-10-09T02:24:47;12.50;99.90
3406;DHT22;10008;48.682;9.016;2023-10-09T02:27:18;12.40;99.90
3406;DHT22;10008;48.682;9.016;2023-10-09T02:30:04;12.40;99.90
3406;DHT22;10008;48.682;9.016;2023-10-09T02:32:34;12.50;99.90
3406;DHT22;10008;48.682;9.016;2023-10-09T02:35:01;12.40;99.90
3406;DHT22;10008;48.682;9.016;2023-10-09T02:37:36;12.40;99.90
3406;DHT22;10008;48.682;9.016;2023-10-09T02:40:04;12.40;99.90
3406;DHT22;10008;48.682;9.016;2023-10-09T02:42:34;12.40;99.90
3406;DHT22;10008;48.682;9.016;2023-10-09T02:45:00;12.40;99.90
3406;DHT22;10008;48.682;9.016;2023-10-09T02:47:29;12.40;99.90
3406;DHT22;10008;48.682;9.016;2023-10-09T02:49:56;12.70;99.90
3406;DHT22;10008;48.682;9.016;2023-10-09T02:52:31;12.50;99.90
3406;DHT22;10008;48.682;9.016;2023-10-09T02:55:06;12.50;99.90
3406;DHT22;10008;48.682;9.016;2023-10-09T02:57:37;12.60;99.90
3406;DHT22;10008;48.682;9.016;2023-10-09T03:00:06;12.60;99.90
3406;DHT22;10008;48.682;9.016;2023-10-09T03:02:35;12.60;99.90
3406;DHT22;10008;48.682;9.016;2023-10-09T03:05:06;12.60;99.90
3406;DHT22;10008;48.682;9.016;2023-10-09T03:07:37;12.50;99.90
3406;DHT22;10008;48.682;9.016;2023-10-09T03:10:06;12.50;99.90
3406;DHT22;10008;48.682;9.016;2023-10-09T03:12:37;12.50;99.90
3406;DHT22;10008;48.682;9.016;2023-10-09T03:15:05;12.50;99.90
3406;DHT22;10008;48.682;9.016;2023-10-09T03:17:34;12.50;99.90
3406;DHT22;10008;48.682;9.016;2023-10-09T03:20:07;12.50;99.90
3406;DHT22;10008;48.682;9.016;2023-10-09T03:22:40;12.60;99.90
3406;DHT22;10008;48.682;9.016;2023-10-09T03:25:07;12.70;99.90
3406;DHT22;10008;48.682;9.016;2023-10-09T03:27:43;12.70;99.90
3406;DHT22;10008;48.682;9.016;2023-10-09T03:30:15;12.80;99.90
3406;DHT22;10008;48.682;9.016;2023-10-09T03:32:48;12.70;99.90
3406;DHT22;10008;48.682;9.016;2023-10-09T03:35:22;12.70;99.90
3406;DHT22;10008;48.682;9.016;2023-10-09T03:37:59;12.90;99.90
3406;DHT22;10008;48.682;9.016;2023-10-09T03:40:43;12.60;99.90
3406;DHT22;10008;48.682;9.016;2023-10-09T03:43:10;12.60;99.90
3406;DHT22;10008;48.682;9.016;2023-10-09T03:45:39;12.50;99.90
3406;DHT22;10008;48.682;9.016;2023-10-09T03:48:18;12.50;99.90
3406;DHT22;10008;48.682;9.016;2023-10-09T03:50:47;12.60;99.90
3406;DHT22;10008;48.682;9.016;2023-10-09T03:53:13;12.50;99.90
3406;DHT22;10008;48.682;9.016;2023-10-09T03:55:39;12.50;99.90
3406;DHT22;10008;48.682;9.016;2023-10-09T03:58:09;12.60;99.90
3406;DHT22;10008;48.682;9.016;2023-10-09T04:00:37;12.60;99.90
3406;DHT22;10008;48.682;9.016;2023-10-09T04:03:15;12.60;99.90
3406;DHT22;10008;48.682;9.016;2023-10-09T04:05:41;12.70;99.90
3406;DHT22;10008;48.682;9.016;2023-10-09T04:08:11;12.60;99.90
3406;DHT22;10008;48.682;9.016;2023-10-09T04:10:47;12.70;99.90
3406;DHT22;10008;48.682;9.016;2023-10-09T04:13:19;12.70;99.90
3406;DHT22;10008;48.682;9.016;2023-10-09T04:15:49;12.90;99.90
3406;DHT22;10008;48.682;9.016;2023-10-09T04:18:15;12.80;99.90
3406;DHT22;10008;48.682;9.016;2023-10-09T04:20:42;12.80;99.90
3406;DHT22;10008;48.682;9.016;2023-10-09T04:23:26;12.70;99.90
3406;DHT22;10008;48.682;9.016;2023-10-09T04:26:21;12.60;99.90
3406;DHT22;10008;48.682;9.016;2023-10-09T04:28:50;12.60;99.90
3406;DHT22;10008;48.682;9.016;2023-10-09T04:31:19;12.60;99.90
3406;DHT22;10008;48.682;9.016;2023-10-09T04:33:47;12.70;99.90
3406;DHT22;10008;48.682;9.016;2023-10-09T04:36:41;13.10;99.90
3406;DHT22;10008;48.682;9.016;2023-10-09T04:39:18;12.60;99.90
3406;DHT22;10008;48.682;9.016;2023-10-09T04:41:56;12.50;99.90
3406;DHT22;10008;48.682;9.016;2023-10-09T04:44:45;12.50;99.90
3406;DHT22;10008;48.682;9.016;2023-10-09T04:47:36;12.50;99.90
3406;DHT22;10008;48.682;9.016;2023-10-09T04:52:37;12.40;99.90
3406;DHT22;10008;48.682;9.016;2023-10-09T04:55:04;12.50;99.90
3406;DHT22;10008;48.682;9.016;2023-10-09T04:57:33;12.50;99.90
3406;DHT22;10008;48.682;9.016;2023-10-09T05:00:16;12.40;99.90
3406;DHT22;10008;48.682;9.016;2023-10-09T05:02:51;12.30;99.90
3406;DHT22;10008;48.682;9.016;2023-10-09T05:05:25;12.40;99.90
3406;DHT22;10008;48.682;9.016;2023-10-09T05:08:16;12.40;99.90
3406;DHT22;10008;48.682;9.016;2023-10-09T05:13:29;12.50;99.90
3406;DHT22;10008;48.682;9.016;2023-10-09T05:16:17;12.40;99.90
3406;DHT22;10008;48.682;9.016;2023-10-09T05:18:56;12.40;99.90
3406;DHT22;10008;48.682;9.016;2023-10-09T05:21:29;12.30;99.90
3406;DHT22;10008;48.682;9.016;2023-10-09T05:23:59;12.30;99.90
3406;DHT22;10008;48.682;9.016;2023-10-09T05:26:44;12.30;99.90
3406;DHT22;10008;48.682;9.016;2023-10-09T05:31:46;12.40;99.90
3406;DHT22;10008;48.682;9.016;2023-10-09T05:34:33;12.30;99.90
3406;DHT22;10008;48.682;9.016;2023-10-09T05:37:08;12.30;99.90
3406;DHT22;10008;48.682;9.016;2023-10-09T05:39:56;12.40;99.90
3406;DHT22;10008;48.682;9.016;2023-10-09T05:42:28;12.40;99.90
3406;DHT22;10008;48.682;9.016;2023-10-09T05:45:12;12.70;99.90
3406;DHT22;10008;48.682;9.016;2023-10-09T05:47:44;12.60;99.90
3406;DHT22;10008;48.682;9.016;2023-10-09T05:53:00;12.70;99.90
3406;DHT22;10008;48.682;9.016;2023-10-09T05:55:30;12.80;99.90
3406;DHT22;10008;48.682;9.016;2023-10-09T05:58:34;12.80;99.90
3406;DHT22;10008;48.682;9.016;2023-10-09T06:01:19;12.90;99.90
3406;DHT22;10008;48.682;9.016;2023-10-09T06:04:03;13.00;99.90
3406;DHT22;10008;48.682;9.016;2023-10-09T06:06:44;13.00;99.90
3406;DHT22;10008;48.682;9.016;2023-10-09T06:09:12;13.10;99.90
3406;DHT22;10008;48.682;9.016;2023-10-09T06:11:39;13.10;99.90
3406;DHT22;10008;48.682;9.016;2023-10-09T06:14:05;13.10;99.90
3406;DHT22;10008;48.682;9.016;2023-10-09T06:16:38;13.20;99.90
3406;DHT22;10008;48.682;9.016;2023-10-09T06:19:11;13.40;99.90
3406;DHT22;10008;48.682;9.016;2023-10-09T06:21:41;13.40;99.90
3406;DHT22;10008;48.682;9.016;2023-10-09T06:24:19;13.50;99.90
3406;DHT22;10008;48.682;9.016;2023-10-09T06:26:46;13.50;99.90
3406;DHT22;10008;48.682;9.016;2023-10-09T06:29:39;13.50;99.90
3406;DHT22;10008;48.682;9.016;2023-10-09T06:32:11;13.50;99.90
3406;DHT22;10008;48.682;9.016;2023-10-09T06:35:00;13.50;99.90
3406;DHT22;10008;48.682;9.016;2023-10-09T06:37:51;13.50;99.90
3406;DHT22;10008;48.682;9.016;2023-10-09T06:40:30;13.60;99.90
3406;DHT22;10008;48.682;9.016;2023-10-09T06:43:05;13.60;99.90
3406;DHT22;10008;48.682;9.016;2023-10-09T06:45:58;13.70;99.90
3406;DHT22;10008;48.682;9.016;2023-10-09T06:48:43;13.80;99.90
3406;DHT22;10008;48.682;9.016;2023-10-09T06:51:21;13.90;99.90
3406;DHT22;10008;48.682;9.016;2023-10-09T06:53:51;14.00;99.90
3406;DHT22;10008;48.682;9.016;2023-10-09T06:56:20;14.10;99.90
3406;DHT22;10008;48.682;9.016;2023-10-09T06:59:08;14.30;99.90
3406;DHT22;10008;48.682;9.016;2023-10-09T07:01:48;14.40;99.90
3406;DHT22;10008;48.682;9.016;2023-10-09T07:04:35;14.50;99.90
3406;DHT22;10008;48.682;9.016;2023-10-09T07:07:01;14.80;99.90
3406;DHT22;10008;48.682;9.016;2023-10-09T07:09:27;14.80;99.90
3406;DHT22;10008;48.682;9.016;2023-10-09T07:12:09;14.90;99.90
3406;DHT22;10008;48.682;9.016;2023-10-09T07:14:52;15.10;99.90
3406;DHT22;10008;48.682;9.016;2023-10-09T07:17:27;15.00;99.90
3406;DHT22;10008;48.682;9.016;2023-10-09T07:19:58;14.90;99.90
3406;DHT22;10008;48.682;9.016;2023-10-09T07:22:44;14.90;99.90
3406;DHT22;10008;48.682;9.016;2023-10-09T07:25:22;15.00;99.90
3406;DHT22;10008;48.682;9.016;2023-10-09T07:28:08;15.10;99.90
3406;DHT22;10008;48.682;9.016;2023-10-09T07:30:46;15.20;99.90
3406;DHT22;10008;48.682;9.016;2023-10-09T07:33:13;15.50;99.90
3406;DHT22;10008;48.682;9.016;2023-10-09T07:35:41;15.60;99.90
3406;DHT22;10008;48.682;9.016;2023-10-09T07:38:18;15.70;99.90
3406;DHT22;10008;48.682;9.016;2023-10-09T07:40:46;15.90;99.90
3406;DHT22;10008;48.682;9.016;2023-10-09T07:43:32;16.20;99.90
3406;DHT22;10008;48.682;9.016;2023-10-09T07:46:05;16.40;99.90
3406;DHT22;10008;48.682;9.016;2023-10-09T07:48:50;16.50;99.90
3406;DHT22;10008;48.682;9.016;2023-10-09T07:51:22;16.50;99.90
3406;DHT22;10008;48.682;9.016;2023-10-09T07:53:58;16.60;99.90
3406;DHT22;10008;48.682;9.016;2023-10-09T07:56:33;16.70;99.90
3406;DHT22;10008;48.682;9.016;2023-10-09T07:59:07;16.70;99.90
3406;DHT22;10008;48.682;9.016;2023-10-09T08:01:44;16.90;99.90
3406;DHT22;10008;48.682;9.016;2023-10-09T08:04:23;17.20;99.90
3406;DHT22;10008;48.682;9.016;2023-10-09T08:07:07;17.30;99.90
3406;DHT22;10008;48.682;9.016;2023-10-09T08:09:33;17.40;99.90
3406;DHT22;10008;48.682;9.016;2023-10-09T08:12:13;17.60;99.90
3406;DHT22;10008;48.682;9.016;2023-10-09T08:14:43;17.80;99.90
3406;DHT22;10008;48.682;9.016;2023-10-09T08:17:11;18.00;99.90
3406;DHT22;10008;48.682;9.016;2023-10-09T08:19:45;18.20;99.90
3406;DHT22;10008;48.682;9.016;2023-10-09T08:22:30;18.40;99.90
3406;DHT22;10008;48.682;9.016;2023-10-09T08:25:11;18.60;99.90
3406;DHT22;10008;48.682;9.016;2023-10-09T08:27:54;18.70;99.90
3406;DHT22;10008;48.682;9.016;2023-10-09T08:30:21;18.70;99.90
3406;DHT22;10008;48.682;9.016;2023-10-09T08:32:48;18.90;99.90
3406;DHT22;10008;48.682;9.016;2023-10-09T08:35:30;19.00;99.90
3406;DHT22;10008;48.682;9.016;2023-10-09T08:38:02;19.20;99.90
3406;DHT22;10008;48.682;9.016;2023-10-09T08:40:35;19.20;99.90
3406;DHT22;10008;48.682;9.016;2023-10-09T08:43:18;19.30;99.40
3406;DHT22;10008;48.682;9.016;2023-10-09T08:45:55;19.40;98.90
3406;DHT22;10008;48.682;9.016;2023-10-09T08:48:27;19.60;99.30
3406;DHT22;10008;48.682;9.016;2023-10-09T08:50:53;19.80;99.90
3406;DHT22;10008;48.682;9.016;2023-10-09T08:53:22;20.00;99.20
3406;DHT22;10008;48.682;9.016;2023-10-09T08:55:47;19.90;97.70
3406;DHT22;10008;48.682;9.016;2023-10-09T08:58:17;19.80;97.40
3406;DHT22;10008;48.682;9.016;2023-10-09T09:00:47;19.70;97.90
3406;DHT22;10008;48.682;9.016;2023-10-09T09:03:17;19.70;97.60
3406;DHT22;10008;48.682;9.016;2023-10-09T09:05:47;19.70;97.40
3406;DHT22;10008;48.682;9.016;2023-10-09T09:08:24;19.80;97.70
3406;DHT22;10008;48.682;9.016;2023-10-09T09:14:04;20.20;98.40
3406;DHT22;10008;48.682;9.016;2023-10-09T09:16:31;20.20;98.20
3406;DHT22;10008;48.682;9.016;2023-10-09T09:18:58;20.10;98.80
3406;DHT22;10008;48.682;9.016;2023-10-09T09:21:32;20.10;98.30
3406;DHT22;10008;48.682;9.016;2023-10-09T09:24:07;20.20;98.30
3406;DHT22;10008;48.682;9.016;2023-10-09T09:26:55;20.20;97.50
3406;DHT22;10008;48.682;9.016;2023-10-09T09:29:39;20.20;98.00
3406;DHT22;10008;48.682;9.016;2023-10-09T09:32:06;20.40;98.00
3406;DHT22;10008;48.682;9.016;2023-10-09T09:34:52;20.40;97.40
3406;DHT22;10008;48.682;9.016;2023-10-09T09:37:22;20.70;97.70
3406;DHT22;10008;48.682;9.016;2023-10-09T09:39:52;21.10;96.80
3406;DHT22;10008;48.682;9.016;2023-10-09T09:42:18;21.20;95.80
3406;DHT22;10008;48.682;9.016;2023-10-09T09:44:51;21.30;96.50
3406;DHT22;10008;48.682;9.016;2023-10-09T09:47:17;21.30;96.20
3406;DHT22;10008;48.682;9.016;2023-10-09T09:49:51;21.40;96.60
3406;DHT22;10008;48.682;9.016;2023-10-09T09:52:34;21.70;97.40
3406;DHT22;10008;48.682;9.016;2023-10-09T09:55:07;22.10;96.30
3406;DHT22;10008;48.682;9.016;2023-10-09T09:57:40;22.50;95.10
3406;DHT22;10008;48.682;9.016;2023-10-09T10:00:09;22.90;93.40
3406;DHT22;10008;48.682;9.016;2023-10-09T10:02:56;23.40;93.90
3406;DHT22;10008;48.682;9.016;2023-10-09T10:05:25;23.60;92.90
3406;DHT22;10008;48.682;9.016;2023-10-09T10:07:57;24.00;92.70
3406;DHT22;10008;48.682;9.016;2023-10-09T10:10:53;24.40;92.00
3406;DHT22;10008;48.682;9.016;2023-10-09T10:16:12;24.60;88.80
3406;DHT22;10008;48.682;9.016;2023-10-09T10:21:29;25.00;86.20
3406;DHT22;10008;48.682;9.016;2023-10-09T10:23:58;24.90;86.30
3406;DHT22;10008;48.682;9.016;2023-10-09T10:26:36;24.90;85.70
3406;DHT22;10008;48.682;9.016;2023-10-09T10:29:22;25.30;88.30
3406;DHT22;10008;48.682;9.016;2023-10-09T10:31:57;25.30;84.00
3406;DHT22;10008;48.682;9.016;2023-10-09T10:34:26;25.30;85.20
3406;DHT22;10008;48.682;9.016;2023-10-09T10:36:53;25.80;83.50
3406;DHT22;10008;48.682;9.016;2023-10-09T10:39:26;26.20;85.40
3406;DHT22;10008;48.682;9.016;2023-10-09T10:42:14;26.10;81.00
3406;DHT22;10008;48.682;9.016;2023-10-09T10:45:03;25.80;79.80
3406;DHT22;10008;48.682;9.016;2023-10-09T10:47:48;25.80;82.30
3406;DHT22;10008;48.682;9.016;2023-10-09T10:50:17;25.40;80.30
3406;DHT22;10008;48.682;9.016;2023-10-09T10:53:16;25.30;81.30
3406;DHT22;10008;48.682;9.016;2023-10-09T10:56:01;25.50;81.80
3406;DHT22;10008;48.682;9.016;2023-10-09T10:58:40;25.70;81.90
3406;DHT22;10008;48.682;9.016;2023-10-09T11:01:37;25.70;81.30
3406;DHT22;10008;48.682;9.016;2023-10-09T11:04:24;25.70;83.50
3406;DHT22;10008;48.682;9.016;2023-10-09T11:07:00;25.60;83.30
3406;DHT22;10008;48.682;9.016;2023-10-09T11:09:51;25.30;79.70
3406;DHT22;10008;48.682;9.016;2023-10-09T11:12:28;24.90;78.50
3406;DHT22;10008;48.682;9.016;2023-10-09T11:15:34;25.10;82.80
3406;DHT22;10008;48.682;9.016;2023-10-09T11:18:11;25.20;79.90
3406;DHT22;10008;48.682;9.016;2023-10-09T11:20:44;25.40;82.90
3406;DHT22;10008;48.682;9.016;2023-10-09T11:23:28;25.60;79.80
3406;DHT22;10008;48.682;9.016;2023-10-09T11:26:01;25.70;81.20
3406;DHT22;10008;48.682;9.016;2023-10-09T11:29:14;25.70;81.20
3406;DHT22;10008;48.682;9.016;2023-10-09T11:32:05;25.60;81.00
3406;DHT22;10008;48.682;9.016;2023-10-09T11:34:32;25.50;78.40
3406;DHT22;10008;48.682;9.016;2023-10-09T11:37:00;25.00;78.40
3406;DHT22;10008;48.682;9.016;2023-10-09T11:39:30;25.00;76.20
3406;DHT22;10008;48.682;9.016;2023-10-09T11:42:18;25.00;76.60
3406;DHT22;10008;48.682;9.016;2023-10-09T11:45:04;25.00;80.20
3406;DHT22;10008;48.682;9.016;2023-10-09T11:47:48;25.00;77.90
3406;DHT22;10008;48.682;9.016;2023-10-09T11:50:46;24.60;77.70
3406;DHT22;10008;48.682;9.016;2023-10-09T11:53:45;24.40;80.10
3406;DHT22;10008;48.682;9.016;2023-10-09T11:56:23;24.10;76.00
3406;DHT22;10008;48.682;9.016;2023-10-09T11:58:52;23.80;75.30
3406;DHT22;10008;48.682;9.016;2023-10-09T12:01:19;23.50;75.00
3406;DHT22;10008;48.682;9.016;2023-10-09T12:03:49;23.40;74.40
3406;DHT22;10008;48.682;9.016;2023-10-09T12:06:20;23.20;72.20
3406;DHT22;10008;48.682;9.016;2023-10-09T12:08:49;23.10;70.90
3406;DHT22;10008;48.682;9.016;2023-10-09T12:11:16;23.00;69.60
3406;DHT22;10008;48.682;9.016;2023-10-09T12:13:51;22.90;69.60
3406;DHT22;10008;48.682;9.016;2023-10-09T12:16:24;23.00;71.10
3406;DHT22;10008;48.682;9.016;2023-10-09T12:18:54;23.10;67.30
3406;DHT22;10008;48.682;9.016;2023-10-09T12:21:20;23.20;67.10
3406;DHT22;10008;48.682;9.016;2023-10-09T12:23:46;23.30;66.50
3406;DHT22;10008;48.682;9.016;2023-10-09T12:26:13;23.40;66.00
3406;DHT22;10008;48.682;9.016;2023-10-09T12:28:42;23.60;66.20
3406;DHT22;10008;48.682;9.016;2023-10-09T12:31:16;23.80;68.10
3406;DHT22;10008;48.682;9.016;2023-10-09T12:33:45;24.10;68.30
3406;DHT22;10008;48.682;9.016;2023-10-09T12:36:12;24.40;73.20
3406;DHT22;10008;48.682;9.016;2023-10-09T12:38:49;24.80;73.30
3406;DHT22;10008;48.682;9.016;2023-10-09T12:41:20;25.70;74.20
3406;DHT22;10008;48.682;9.016;2023-10-09T12:43:52;26.40;74.40
3406;DHT22;10008;48.682;9.016;2023-10-09T12:46:19;27.20;71.80
3406;DHT22;10008;48.682;9.016;2023-10-09T12:48:57;27.70;74.30
3406;DHT22;10008;48.682;9.016;2023-10-09T12:51:23;28.20;71.30
3406;DHT22;10008;48.682;9.016;2023-10-09T12:53:55;28.70;68.30
3406;DHT22;10008;48.682;9.016;2023-10-09T12:56:24;29.40;67.20
3406;DHT22;10008;48.682;9.016;2023-10-09T12:59:03;29.40;65.00
3406;DHT22;10008;48.682;9.016;2023-10-09T13:01:31;29.60;64.90
3406;DHT22;10008;48.682;9.016;2023-10-09T13:04:11;30.10;63.60
3406;DHT22;10008;48.682;9.016;2023-10-09T13:06:40;29.70;59.50
3406;DHT22;10008;48.682;9.016;2023-10-09T13:09:15;30.30;57.00
3406;DHT22;10008;48.682;9.016;2023-10-09T13:11:42;30.60;55.80
3406;DHT22;10008;48.682;9.016;2023-10-09T13:14:08;30.60;54.60
3406;DHT22;10008;48.682;9.016;2023-10-09T13:16:43;30.50;57.30
3406;DHT22;10008;48.682;9.016;2023-10-09T13:19:09;30.00;55.10
3406;DHT22;10008;48.682;9.016;2023-10-09T13:21:35;29.40;52.30
3406;DHT22;10008;48.682;9.016;2023-10-09T13:24:04;28.90;50.80
3406;DHT22;10008;48.682;9.016;2023-10-09T13:26:32;29.30;53.30
3406;DHT22;10008;48.682;9.016;2023-10-09T13:29:01;29.70;53.70
3406;DHT22;10008;48.682;9.016;2023-10-09T13:31:27;30.00;53.10
3406;DHT22;10008;48.682;9.016;2023-10-09T13:33:54;29.70;53.30
3406;DHT22;10008;48.682;9.016;2023-10-09T13:36:26;30.10;57.00
3406;DHT22;10008;48.682;9.016;2023-10-09T13:39:04;30.70;53.00
3406;DHT22;10008;48.682;9.016;2023-10-09T13:41:51;30.20;52.50
3406;DHT22;10008;48.682;9.016;2023-10-09T13:44:24;29.00;55.00
3406;DHT22;10008;48.682;9.016;2023-10-09T13:46:56;28.20;54.30
3406;DHT22;10008;48.682;9.016;2023-10-09T13:49:22;28.20;56.40
3406;DHT22;10008;48.682;9.016;2023-10-09T13:52:01;28.20;53.80
3406;DHT22;10008;48.682;9.016;2023-10-09T13:54:27;28.00;56.10
3406;DHT22;10008;48.682;9.016;2023-10-09T13:57:03;27.60;54.80
3406;DHT22;10008;48.682;9.016;2023-10-09T13:59:33;27.30;55.80
3406;DHT22;10008;48.682;9.016;2023-10-09T14:02:03;26.90;53.90
3406;DHT22;10008;48.682;9.016;2023-10-09T14:04:35;26.60;54.90
3406;DHT22;10008;48.682;9.016;2023-10-09T14:07:01;26.60;52.50
3406;DHT22;10008;48.682;9.016;2023-10-09T14:09:31;26.50;51.50
3406;DHT22;10008;48.682;9.016;2023-10-09T14:12:01;26.80;50.40
3406;DHT22;10008;48.682;9.016;2023-10-09T14:14:38;27.20;49.50
3406;DHT22;10008;48.682;9.016;2023-10-09T14:17:09;27.60;46.90
3406;DHT22;10008;48.682;9.016;2023-10-09T14:19:39;27.80;46.30
3406;DHT22;10008;48.682;9.016;2023-10-09T14:22:07;27.80;46.00
3406;DHT22;10008;48.682;9.016;2023-10-09T14:24:33;27.90;46.60
3406;DHT22;10008;48.682;9.016;2023-10-09T14:27:02;28.10;47.00
3406;DHT22;10008;48.682;9.016;2023-10-09T14:29:33;28.30;47.20
3406;DHT22;10008;48.682;9.016;2023-10-09T14:32:03;28.40;45.60
3406;DHT22;10008;48.682;9.016;2023-10-09T14:34:29;28.20;49.20
3406;DHT22;10008;48.682;9.016;2023-10-09T14:36:59;28.10;52.80
3406;DHT22;10008;48.682;9.016;2023-10-09T14:39:28;27.90;52.10
3406;DHT22;10008;48.682;9.016;2023-10-09T14:41:55;27.80;52.10
3406;DHT22;10008;48.682;9.016;2023-10-09T14:44:24;27.50;52.10
3406;DHT22;10008;48.682;9.016;2023-10-09T14:46:50;26.90;52.20
3406;DHT22;10008;48.682;9.016;2023-10-09T14:49:16;26.60;54.30
3406;DHT22;10008;48.682;9.016;2023-10-09T14:51:47;26.30;55.40
3406;DHT22;10008;48.682;9.016;2023-10-09T14:54:13;26.10;55.10
3406;DHT22;10008;48.682;9.016;2023-10-09T14:56:44;25.90;54.40
3406;DHT22;10008;48.682;9.016;2023-10-09T14:59:11;25.70;53.80
3406;DHT22;10008;48.682;9.016;2023-10-09T15:01:38;25.60;54.50
3406;DHT22;10008;48.682;9.016;2023-10-09T15:04:03;25.50;54.30
3406;DHT22;10008;48.682;9.016;2023-10-09T15:06:30;25.50;55.10
3406;DHT22;10008;48.682;9.016;2023-10-09T15:08:57;25.30;54.90
3406;DHT22;10008;48.682;9.016;2023-10-09T15:11:25;25.20;54.60
3406;DHT22;10008;48.682;9.016;2023-10-09T15:13:55;25.20;55.40
3406;DHT22;10008;48.682;9.016;2023-10-09T15:16:24;25.10;55.60
3406;DHT22;10008;48.682;9.016;2023-10-09T15:18:55;25.00;56.70
3406;DHT22;10008;48.682;9.016;2023-10-09T15:21:29;25.00;56.40
3406;DHT22;10008;48.682;9.016;2023-10-09T15:23:59;25.00;56.00
3406;DHT22;10008;48.682;9.016;2023-10-09T15:26:25;25.00;56.20
3406;DHT22;10008;48.682;9.016;2023-10-09T15:28:51;25.00;56.40
3406;DHT22;10008;48.682;9.016;2023-10-09T15:31:17;25.00;57.20
3406;DHT22;10008;48.682;9.016;2023-10-09T15:33:44;24.80;57.20
3406;DHT22;10008;48.682;9.016;2023-10-09T15:36:14;24.60;57.40
3406;DHT22;10008;48.682;9.016;2023-10-09T15:38:40;24.50;58.90
3406;DHT22;10008;48.682;9.016;2023-10-09T15:41:06;24.50;59.50
3406;DHT22;10008;48.682;9.016;2023-10-09T15:43:34;24.30;59.10
3406;DHT22;10008;48.682;9.016;2023-10-09T15:46:00;24.10;59.80
3406;DHT22;10008;48.682;9.016;2023-10-09T15:48:27;24.00;59.80
3406;DHT22;10008;48.682;9.016;2023-10-09T15:50:53;23.90;60.50
3406;DHT22;10008;48.682;9.016;2023-10-09T15:53:19;23.70;60.70
3406;DHT22;10008;48.682;9.016;2023-10-09T15:55:47;23.70;61.30
3406;DHT22;10008;48.682;9.016;2023-10-09T15:58:17;23.60;62.80
3406;DHT22;10008;48.682;9.016;2023-10-09T16:00:44;23.50;62.80
3406;DHT22;10008;48.682;9.016;2023-10-09T16:03:11;23.40;63.10
3406;DHT22;10008;48.682;9.016;2023-10-09T16:05:40;23.30;63.80
3406;DHT22;10008;48.682;9.016;2023-10-09T16:08:06;23.20;65.30
3406;DHT22;10008;48.682;9.016;2023-10-09T16:10:32;23.20;65.90
3406;DHT22;10008;48.682;9.016;2023-10-09T16:13:00;23.10;66.40
3406;DHT22;10008;48.682;9.016;2023-10-09T16:15:29;22.90;68.10
3406;DHT22;10008;48.682;9.016;2023-10-09T16:17:55;22.90;68.30
3406;DHT22;10008;48.682;9.016;2023-10-09T16:20:32;22.80;69.20
3406;DHT22;10008;48.682;9.016;2023-10-09T16:23:01;22.70;69.90
3406;DHT22;10008;48.682;9.016;2023-10-09T16:25:31;22.70;71.10
3406;DHT22;10008;48.682;9.016;2023-10-09T16:28:00;22.60;71.20
3406;DHT22;10008;48.682;9.016;2023-10-09T16:30:27;22.40;72.80
3406;DHT22;10008;48.682;9.016;2023-10-09T16:32:54;22.40;72.20
3406;DHT22;10008;48.682;9.016;2023-10-09T16:35:20;22.30;72.70
3406;DHT22;10008;48.682;9.016;2023-10-09T16:37:49;22.20;73.80
3406;DHT22;10008;48.682;9.016;2023-10-09T16:40:16;22.10;74.60
3406;DHT22;10008;48.682;9.016;2023-10-09T16:42:46;22.00;74.90
3406;DHT22;10008;48.682;9.016;2023-10-09T16:45:12;21.80;74.00